Time;durP1;ratioP1;P1;durP2;ratioP2;P2;SDS_P1;SDS_P2;PMS_P1;PMS_P2;Temp;Humidity;BMP_temperature;BMP_pressure;BME280_temperature;BME280_humidity;BME280_pressure;Samples;Min_cycle;Max_cycle;Signal;HPM_P1;HPM_P2
2023/08/18 00:03:57;;;;;;;8.50;7.80;;;;;;;19.05;83.25;99039.02;226783;1270;22530;-74
2023/08/18 00:08:59;;;;;;;8.90;7.90;;;;;;;18.97;83.37;99037.52;226730;1270;22534;-74
2023/08/18 00:14:01;;;;;;;8.60;7.80;;;;;;;18.91;83.74;99041.05;226710;1270;25879;-75
2023/08/18 00:19:03;;;;;;;9.30;7.60;;;;;;;18.88;83.85;99042.47;226765;1272;22534;-74
2023/08/18 00:24:05;;;;;;;9.80;7.80;;;;;;;18.84;84.07;99042.50;226835;1261;24602;-74
2023/08/18 00:29:07;;;;;;;9.80;7.00;;;;;;;18.79;84.12;99045.12;226750;1274;22540;-74
2023/08/18 00:34:09;;;;;;;9.20;8.10;;;;;;;18.73;84.14;99042.14;226849;1274;22541;-73
2023/08/18 00:39:11;;;;;;;11.00;7.90;;;;;;;18.66;84.31;99033.17;226845;1273;22548;-74
2023/08/18 00:44:13;;;;;;;9.30;8.40;;;;;;;18.62;84.63;99027.02;226769;1272;22538;-74
2023/08/18 00:49:18;;;;;;;9.10;8.20;;;;;;;18.58;84.58;99030.33;226770;1273;22549;-75
2023/08/18 00:54:20;;;;;;;9.40;8.40;;;;;;;18.55;84.85;99033.95;226668;1273;22534;-73
2023/08/18 00:59:22;;;;;;;9.50;8.40;;;;;;;18.51;84.92;99027.77;226663;1270;22530;-74
2023/08/18 01:04:24;;;;;;;10.30;9.30;;;;;;;18.48;85.02;99021.89;226899;1270;22530;-74
2023/08/18 01:09:27;;;;;;;9.40;8.50;;;;;;;18.45;85.25;99015.35;226901;1274;22522;-75
2023/08/18 01:14:47;;;;;;;8.70;7.90;;;;;;;18.42;85.16;99015.39;226736;1273;22527;-75
2023/08/18 01:19:52;;;;;;;9.40;8.50;;;;;;;18.37;85.24;99008.06;226928;1270;22548;-74
2023/08/18 01:25:01;;;;;;;10.80;8.40;;;;;;;18.30;85.19;99007.91;226744;1271;24198;-74
2023/08/18 01:30:03;;;;;;;8.60;7.80;;;;;;;18.23;85.19;99010.42;226828;1272;22532;-74
2023/08/18 01:35:08;;;;;;;9.50;8.60;;;;;;;18.15;85.40;99014.27;222806;1269;5260839;-74
2023/08/18 01:40:13;;;;;;;11.00;9.50;;;;;;;18.07;85.64;99019.88;226772;1270;22543;-75
2023/08/18 01:45:16;;;;;;;11.20;10.00;;;;;;;18.01;85.73;99023.98;226761;1273;22534;-74
2023/08/18 01:50:18;;;;;;;11.70;10.60;;;;;;;17.91;85.55;99025.46;226900;1273;22531;-74
2023/08/18 01:55:20;;;;;;;13.90;10.50;;;;;;;17.81;85.65;99019.49;226672;1272;22526;-74
2023/08/18 02:00:22;;;;;;;13.80;11.20;;;;;;;17.76;85.99;99017.23;226792;1273;22530;-74
2023/08/18 02:05:24;;;;;;;15.30;11.60;;;;;;;17.73;86.23;99015.38;226885;1272;25373;-74
2023/08/18 02:10:26;;;;;;;12.20;10.90;;;;;;;17.70;86.32;99014.06;226691;1273;22526;-75
2023/08/18 02:15:28;;;;;;;12.30;11.00;;;;;;;17.67;86.46;99015.75;226797;1270;22555;-74
2023/08/18 02:20:30;;;;;;;13.10;11.60;;;;;;;17.66;86.52;99012.52;226665;1269;22900;-74
2023/08/18 02:25:32;;;;;;;12.90;11.50;;;;;;;17.66;86.56;99011.45;226798;1272;22526;-73
2023/08/18 02:30:34;;;;;;;12.30;11.10;;;;;;;17.66;86.68;99002.33;226809;1260;22540;-74
2023/08/18 02:35:36;;;;;;;12.60;11.40;;;;;;;17.67;86.75;99000.30;226750;1270;22530;-75
2023/08/18 02:40:39;;;;;;;12.50;11.10;;;;;;;17.67;86.90;98997.56;226871;1272;23756;-74
2023/08/18 02:45:40;;;;;;;13.30;11.00;;;;;;;17.66;86.84;98990.92;226731;1269;22530;-75
2023/08/18 02:50:42;;;;;;;16.00;11.20;;;;;;;17.66;86.75;98989.05;226662;1273;22540;-75
2023/08/18 02:55:44;;;;;;;12.90;11.40;;;;;;;17.62;86.84;98983.65;226610;1271;22976;-74
2023/08/18 03:00:46;;;;;;;11.70;10.30;;;;;;;17.58;86.77;98986.74;226778;1273;22534;-75
2023/08/18 03:05:50;;;;;;;11.40;10.30;;;;;;;17.50;86.70;98992.00;226844;1273;22545;-75
2023/08/18 03:10:59;;;;;;;11.60;10.40;;;;;;;17.38;86.55;98997.42;226747;1259;22539;-74
2023/08/18 03:16:04;;;;;;;12.20;10.90;;;;;;;17.29;86.87;98999.11;226724;1270;22532;-74
2023/08/18 03:21:06;;;;;;;13.30;11.50;;;;;;;17.24;86.85;99007.51;226865;1272;22651;-73
2023/08/18 03:26:08;;;;;;;13.40;11.90;;;;;;;17.21;87.16;99006.85;226835;1273;22526;-74
2023/08/18 03:31:11;;;;;;;13.40;11.70;;;;;;;17.18;87.29;99001.97;226792;1260;23411;-74
2023/08/18 03:36:13;;;;;;;13.30;10.80;;;;;;;17.16;87.35;99005.81;226785;1273;22541;-74
2023/08/18 03:41:15;;;;;;;13.90;12.10;;;;;;;17.13;87.50;98995.41;226690;1269;22540;-75
2023/08/18 03:46:25;;;;;;;13.40;12.00;;;;;;;17.12;87.53;99000.52;226892;1272;22546;-75
2023/08/18 03:51:29;;;;;;;13.60;12.30;;;;;;;17.11;87.58;99007.11;226737;1269;22531;-75
2023/08/18 03:56:30;;;;;;;13.90;12.60;;;;;;;17.12;87.89;99012.02;226837;1272;22531;-74
2023/08/18 04:01:32;;;;;;;12.60;11.30;;;;;;;17.14;87.89;99012.65;226522;1273;24254;-74
2023/08/18 04:06:35;;;;;;;12.40;11.00;;;;;;;17.16;87.88;99023.40;226848;1272;22564;-74
2023/08/18 04:11:37;;;;;;;12.60;11.30;;;;;;;17.16;87.68;99030.49;226769;1272;22545;-76
2023/08/18 04:16:38;;;;;;;12.40;10.80;;;;;;;17.18;87.71;99027.73;226884;1263;22554;-75
2023/08/18 04:21:40;;;;;;;13.00;11.70;;;;;;;17.23;87.81;99023.34;227000;1271;22518;-74
2023/08/18 04:26:42;;;;;;;13.80;11.60;;;;;;;17.26;87.97;99023.30;226763;1274;22545;-74
2023/08/18 04:31:45;;;;;;;12.80;11.40;;;;;;;17.34;88.10;99021.65;226976;1260;22555;-74
2023/08/18 04:36:52;;;;;;;13.20;11.80;;;;;;;17.46;88.18;99023.13;226984;1272;22539;-73
2023/08/18 04:41:54;;;;;;;14.40;12.40;;;;;;;17.53;87.98;99018.08;226679;1273;22537;-74
2023/08/18 04:46:56;;;;;;;13.40;12.00;;;;;;;17.57;87.91;99021.83;226944;1269;22542;-74
2023/08/18 04:51:59;;;;;;;15.10;13.70;;;;;;;17.61;87.94;99033.44;226734;1260;22526;-74
2023/08/18 04:57:03;;;;;;;16.00;13.70;;;;;;;17.68;88.02;99025.77;226710;1273;25519;-74
2023/08/18 05:02:06;;;;;;;17.00;13.80;;;;;;;17.79;88.21;99022.43;226765;1271;22740;-74
2023/08/18 05:07:08;;;;;;;16.20;14.50;;;;;;;17.94;88.27;99019.02;226867;1272;22609;-74
2023/08/18 05:12:11;;;;;;;18.40;16.50;;;;;;;18.09;88.31;99014.94;226769;1273;22541;-74
2023/08/18 05:17:13;;;;;;;18.10;16.20;;;;;;;18.28;88.36;99018.45;226765;1273;22543;-75
2023/08/18 05:22:15;;;;;;;18.60;16.60;;;;;;;18.53;88.34;99022.05;226743;1263;22574;-74
2023/08/18 05:27:17;;;;;;;17.60;15.70;;;;;;;18.86;88.41;99022.61;226854;1272;22536;-74
2023/08/18 05:32:19;;;;;;;17.80;14.80;;;;;;;19.19;88.14;99026.20;226698;1273;22526;-74
2023/08/18 05:37:21;;;;;;;16.90;14.80;;;;;;;19.47;87.74;99020.00;226702;1271;22527;-74
2023/08/18 05:42:23;;;;;;;17.00;14.40;;;;;;;19.72;87.38;99015.27;226619;1262;22555;-75
2023/08/18 05:47:25;;;;;;;17.30;14.50;;;;;;;19.94;87.01;99017.27;226761;1267;22530;-75
2023/08/18 05:52:27;;;;;;;16.90;14.70;;;;;;;20.12;86.68;99025.38;226547;1271;22572;-73
2023/08/18 05:57:30;;;;;;;15.90;12.70;;;;;;;20.27;86.34;99032.88;226632;1267;22547;-73
2023/08/18 06:02:32;;;;;;;14.50;13.00;;;;;;;20.46;86.17;99031.58;226653;1272;22552;-74
2023/08/18 06:07:34;;;;;;;16.80;13.80;;;;;;;20.65;86.06;99031.45;226464;1254;22673;-72
2023/08/18 06:12:37;;;;;;;15.10;13.50;;;;;;;20.85;85.75;99029.77;226648;1256;23843;-72
2023/08/18 06:17:40;;;;;;;14.80;12.70;;;;;;;21.02;85.31;99026.51;226417;1255;25230;-72
2023/08/18 06:22:43;;;;;;;13.90;12.50;;;;;;;21.20;85.02;99029.27;226720;1267;22537;-72
2023/08/18 06:27:45;;;;;;;14.40;11.50;;;;;;;21.38;84.62;99031.75;226637;1270;22554;-72
2023/08/18 06:32:47;;;;;;;13.50;11.30;;;;;;;21.56;84.22;99031.73;226693;1269;22545;-73
2023/08/18 06:37:48;;;;;;;13.50;11.20;;;;;;;21.71;83.73;99033.29;226686;1251;22532;-75
2023/08/18 06:42:50;;;;;;;13.40;10.40;;;;;;;21.89;83.58;99038.46;226609;1253;22562;-72
2023/08/18 06:47:52;;;;;;;14.70;11.00;;;;;;;22.05;83.10;99039.49;226675;1260;22544;-73
2023/08/18 06:52:54;;;;;;;14.70;11.00;;;;;;;22.19;82.71;99038.59;225804;1270;24059;-75
2023/08/18 06:57:56;;;;;;;12.90;9.90;;;;;;;22.35;82.48;99027.68;226550;1269;22585;-72
2023/08/18 07:02:58;;;;;;;14.30;10.80;;;;;;;22.60;82.48;99030.12;226732;1272;24263;-72
2023/08/18 07:08:01;;;;;;;15.70;10.80;;;;;;;22.82;81.85;99040.06;226489;1269;22544;-72
2023/08/18 07:13:03;;;;;;;14.20;11.60;;;;;;;22.99;81.16;99046.20;226572;1271;22539;-74
2023/08/18 07:18:05;;;;;;;14.00;11.70;;;;;;;23.21;81.04;99045.55;226537;1269;22600;-74
2023/08/18 07:23:08;;;;;;;15.40;12.20;;;;;;;23.41;80.56;99049.08;226490;1271;23264;-73
2023/08/18 07:28:10;;;;;;;15.70;11.70;;;;;;;23.61;79.88;99044.48;226542;1269;22593;-73
2023/08/18 07:33:12;;;;;;;13.10;10.90;;;;;;;23.83;79.56;99046.73;226580;1270;22557;-73
2023/08/18 07:38:14;;;;;;;15.80;12.60;;;;;;;24.05;78.93;99048.42;226566;1270;22550;-74
2023/08/18 07:43:16;;;;;;;13.10;11.70;;;;;;;24.26;78.35;99042.52;226558;1272;22564;-74
2023/08/18 07:48:18;;;;;;;13.30;11.80;;;;;;;24.41;77.54;99039.27;226631;1273;22614;-74
2023/08/18 07:53:20;;;;;;;12.90;11.30;;;;;;;24.63;77.57;99039.40;226640;1269;25291;-75
2023/08/18 07:58:22;;;;;;;12.60;11.00;;;;;;;24.87;76.61;99040.64;226631;1273;22957;-74
2023/08/18 08:03:24;;;;;;;10.70;9.80;;;;;;;25.09;75.86;99039.09;226695;1270;22589;-74
2023/08/18 08:08:27;;;;;;;12.20;10.60;;;;;;;25.26;74.97;99041.35;226620;1267;23243;-76
2023/08/18 08:13:28;;;;;;;12.60;11.30;;;;;;;25.43;74.70;99034.50;226548;1272;22525;-74
2023/08/18 08:18:32;;;;;;;11.30;10.20;;;;;;;25.60;74.47;99036.69;226485;1269;22707;-76
2023/08/18 08:23:34;;;;;;;15.70;12.10;;;;;;;25.66;73.51;99034.73;226743;1269;24239;-75
2023/08/18 08:28:36;;;;;;;17.60;11.50;;;;;;;25.71;73.80;99033.02;226716;1263;22697;-75
2023/08/18 08:33:38;;;;;;;10.80;9.70;;;;;;;25.93;74.07;99036.02;226586;1263;22541;-75
2023/08/18 08:38:41;;;;;;;11.10;10.00;;;;;;;26.08;72.97;99035.73;226412;1273;22527;-75
2023/08/18 08:43:44;;;;;;;9.70;8.70;;;;;;;26.10;72.07;99034.98;226612;1272;22536;-76
2023/08/18 08:48:48;;;;;;;12.00;9.70;;;;;;;26.14;71.62;99032.41;226613;1273;22557;-75
2023/08/18 08:53:54;;;;;;;10.90;9.80;;;;;;;26.20;71.54;99027.94;226618;1272;22532;-75
2023/08/18 08:58:57;;;;;;;12.80;10.30;;;;;;;26.32;71.71;99025.80;226619;1267;25303;-75
2023/08/18 09:04:00;;;;;;;10.90;9.80;;;;;;;26.49;71.27;99023.48;226545;1267;22521;-76
2023/08/18 09:09:03;;;;;;;10.90;9.80;;;;;;;26.62;70.91;99022.97;226646;1251;22549;-77
2023/08/18 09:14:05;;;;;;;12.60;9.90;;;;;;;26.75;70.38;99026.90;226748;1269;22541;-76
2023/08/18 09:19:11;;;;;;;10.70;9.70;;;;;;;26.88;69.93;99017.39;226536;1266;22666;-75
2023/08/18 09:24:13;;;;;;;10.20;9.30;;;;;;;27.02;69.18;99022.05;226555;1260;24924;-75
2023/08/18 09:29:14;;;;;;;10.30;9.30;;;;;;;27.03;68.39;99020.73;226390;1269;22534;-75
2023/08/18 09:34:23;;;;;;;10.10;9.10;;;;;;;27.13;68.12;99018.15;226647;1269;22597;-75
2023/08/18 09:39:25;;;;;;;10.20;9.20;;;;;;;27.23;68.21;99008.35;226570;1273;25488;-76
2023/08/18 09:44:28;;;;;;;12.30;10.00;;;;;;;27.40;68.08;99005.30;226627;1273;22755;-76
2023/08/18 09:49:34;;;;;;;10.20;9.20;;;;;;;27.59;67.68;99002.17;226767;1256;22530;-76
2023/08/18 09:54:45;;;;;;;11.20;10.20;;;;;;;27.73;67.25;98993.23;226660;1272;22634;-75
2023/08/18 09:59:55;;;;;;;11.60;10.20;;;;;;;27.88;66.89;98991.70;226724;1273;23287;-73
2023/08/18 10:04:58;;;;;;;11.20;10.20;;;;;;;28.05;66.57;98989.34;226621;1273;22522;-72
2023/08/18 10:10:01;;;;;;;10.80;9.10;;;;;;;28.15;65.64;98997.17;226412;1272;22527;-73
2023/08/18 10:15:06;;;;;;;9.90;9.10;;;;;;;28.19;65.03;98992.56;226658;1272;22563;-72
2023/08/18 10:20:12;;;;;;;10.20;9.20;;;;;;;28.30;65.20;98990.35;226725;1272;22584;-73
2023/08/18 10:25:31;;;;;;;9.50;8.50;;;;;;;28.42;64.55;98984.70;226571;1269;22534;-74
2023/08/18 10:30:33;;;;;;;10.60;9.60;;;;;;;28.49;64.19;98986.27;226774;1267;22544;-73
2023/08/18 10:35:39;;;;;;;11.50;10.20;;;;;;;28.64;64.54;98987.89;226509;1268;22533;-74
2023/08/18 10:40:41;;;;;;;14.60;11.40;;;;;;;28.86;64.23;98983.83;226649;1270;22550;-74
2023/08/18 10:45:50;;;;;;;11.90;10.60;;;;;;;28.85;63.36;98976.45;226711;1272;22552;-73
2023/08/18 10:50:52;;;;;;;15.10;10.10;;;;;;;28.93;63.49;98977.17;226687;1267;22546;-73
2023/08/18 10:55:54;;;;;;;14.70;9.90;;;;;;;28.95;63.29;98977.30;226671;1269;22539;-73
2023/08/18 11:00:57;;;;;;;11.90;10.40;;;;;;;28.88;62.90;98969.77;226633;1273;22547;-75
2023/08/18 11:05:59;;;;;;;12.00;10.90;;;;;;;29.07;63.45;98970.01;226492;1259;25430;-76
2023/08/18 11:11:01;;;;;;;11.60;10.50;;;;;;;29.23;62.58;98971.15;226783;1266;22535;-75
2023/08/18 11:16:03;;;;;;;11.40;10.30;;;;;;;29.27;62.72;98968.38;226598;1272;22560;-75
2023/08/18 11:21:05;;;;;;;11.30;10.20;;;;;;;29.52;62.97;98965.08;226599;1263;25967;-76
2023/08/18 11:26:08;;;;;;;9.90;9.00;;;;;;;29.74;62.42;98965.41;226588;1270;22538;-76
2023/08/18 11:31:12;;;;;;;12.50;8.20;;;;;;;29.90;61.29;98962.58;226586;1272;22556;-76
2023/08/18 11:36:14;;;;;;;8.70;7.80;;;;;;;30.00;60.39;98958.81;226573;1263;25262;-76
2023/08/18 11:41:16;;;;;;;8.50;7.70;;;;;;;30.04;59.46;98957.85;226420;1260;22540;-76
2023/08/18 11:46:19;;;;;;;8.20;7.40;;;;;;;30.02;58.65;98959.95;226511;1269;22538;-76
2023/08/18 11:51:21;;;;;;;8.10;7.30;;;;;;;29.95;58.10;98969.45;226524;1263;22533;-76
2023/08/18 11:56:26;;;;;;;8.80;8.00;;;;;;;29.93;58.00;98968.02;226555;1273;25165;-76
2023/08/18 12:01:33;;;;;;;8.90;8.10;;;;;;;30.03;57.90;98967.08;226575;1249;25501;-82
2023/08/18 12:06:35;;;;;;;9.30;8.40;;;;;;;29.93;57.78;98966.00;226627;1274;22540;-81
2023/08/18 12:11:37;;;;;;;12.00;8.40;;;;;;;29.95;58.37;98958.70;226619;1267;22526;-80
2023/08/18 12:16:39;;;;;;;10.20;9.10;;;;;;;30.12;58.37;98947.00;226627;1269;22541;-81
2023/08/18 12:21:41;;;;;;;9.60;8.80;;;;;;;30.38;58.88;98943.43;226453;1273;24346;-81
2023/08/18 12:26:43;;;;;;;9.40;8.50;;;;;;;30.59;58.08;98941.46;226669;1272;22529;-82
2023/08/18 12:31:45;;;;;;;9.90;8.90;;;;;;;30.69;57.39;98938.52;226555;1272;22536;-82
2023/08/18 12:36:47;;;;;;;10.30;8.40;;;;;;;30.64;56.54;98939.09;226527;1272;22603;-82
2023/08/18 12:41:49;;;;;;;9.80;8.80;;;;;;;30.45;56.62;98938.14;226663;1272;22551;-83
2023/08/18 12:46:51;;;;;;;9.80;8.90;;;;;;;30.48;57.28;98932.35;226798;1272;22538;-82
2023/08/18 12:51:53;;;;;;;9.90;9.20;;;;;;;30.44;57.13;98933.88;226622;1257;22605;-83
2023/08/18 12:56:56;;;;;;;10.40;8.60;;;;;;;30.28;57.33;98932.52;226558;1263;22548;-78
2023/08/18 13:01:58;;;;;;;8.60;7.80;;;;;;;30.29;57.43;98927.27;226647;1270;22538;-78
2023/08/18 13:07:00;;;;;;;11.00;7.80;;;;;;;30.28;56.72;98924.98;226600;1273;23004;-78
2023/08/18 13:12:05;;;;;;;8.10;7.50;;;;;;;30.28;56.64;98919.11;226604;1266;22595;-79
2023/08/18 13:17:08;;;;;;;7.70;7.00;;;;;;;30.33;56.55;98919.23;226603;1257;24599;-79
2023/08/18 13:22:10;;;;;;;8.00;7.30;;;;;;;30.53;55.56;98916.69;226593;1270;22546;-80
2023/08/18 13:27:14;;;;;;;8.90;8.10;;;;;;;30.73;55.90;98905.98;226389;1263;25181;-78
2023/08/18 13:32:16;;;;;;;8.70;7.90;;;;;;;31.01;56.01;98908.21;226476;1273;22521;-78
2023/08/18 13:37:18;;;;;;;8.90;8.20;;;;;;;31.19;55.42;98902.65;226465;1266;131986;-77
2023/08/18 13:42:22;;;;;;;9.20;8.40;;;;;;;31.23;54.90;98894.91;226633;1263;22566;-71
2023/08/18 13:47:23;;;;;;;11.90;9.30;;;;;;;31.09;54.65;98897.33;226670;1257;22545;-73
2023/08/18 13:52:26;;;;;;;10.10;9.10;;;;;;;30.99;55.17;98891.01;226560;1257;22536;-73
2023/08/18 13:57:27;;;;;;;10.60;8.30;;;;;;;30.90;54.86;98882.38;226633;1263;24327;-73
2023/08/18 14:02:29;;;;;;;8.90;8.00;;;;;;;30.85;55.03;98884.52;226447;1251;22538;-71
2023/08/18 14:07:32;;;;;;;9.20;8.40;;;;;;;30.79;54.34;98879.39;226323;1266;22545;-74
2023/08/18 14:12:34;;;;;;;10.60;8.30;;;;;;;30.72;54.35;98879.61;226455;1269;22542;-73
2023/08/18 14:17:44;;;;;;;8.80;8.00;;;;;;;30.74;54.46;98876.80;226492;1269;22536;-73
2023/08/18 14:22:52;;;;;;;8.80;8.10;;;;;;;30.70;53.78;98877.58;226657;1273;25853;-73
2023/08/18 14:27:54;;;;;;;9.10;8.20;;;;;;;30.66;53.45;98882.67;226888;1273;22545;-72
2023/08/18 14:32:55;;;;;;;8.70;8.00;;;;;;;30.60;53.59;98890.54;226700;1273;24253;-72
2023/08/18 14:37:58;;;;;;;8.60;7.80;;;;;;;30.63;53.46;98896.70;226896;1273;22465;-73
2023/08/18 14:43:00;;;;;;;8.90;8.10;;;;;;;30.75;53.77;98898.33;226718;1273;22538;-71
2023/08/18 14:48:17;;;;;;;8.90;8.10;;;;;;;30.97;53.53;98900.64;226763;1272;23313;-72
2023/08/18 14:53:19;;;;;;;9.40;8.60;;;;;;;30.97;52.94;98901.73;226716;1272;22736;-72
2023/08/18 14:58:27;;;;;;;9.20;8.20;;;;;;;30.91;53.13;98906.43;226793;1273;24251;-72
2023/08/18 15:03:29;;;;;;;9.90;7.90;;;;;;;31.03;53.28;98898.66;226874;1272;22534;-73
2023/08/18 15:08:31;;;;;;;8.60;7.90;;;;;;;31.19;53.13;98891.89;226832;1273;22527;-73
2023/08/18 15:13:33;;;;;;;8.90;7.70;;;;;;;31.22;52.57;98883.34;226721;1273;22558;-72
2023/08/18 15:18:35;;;;;;;8.50;7.70;;;;;;;31.21;52.50;98875.73;226764;1273;22549;-72
2023/08/18 15:23:37;;;;;;;9.00;8.10;;;;;;;31.12;52.60;98865.35;226685;1273;22537;-72
2023/08/18 15:28:39;;;;;;;9.00;8.20;;;;;;;31.00;52.66;98856.20;226785;1262;24071;-72
2023/08/18 15:33:42;;;;;;;9.60;8.80;;;;;;;30.96;52.98;98853.40;226744;1272;22517;-71
2023/08/18 15:38:44;;;;;;;10.10;8.80;;;;;;;30.86;52.87;98850.10;226759;1273;22561;-72
2023/08/18 15:43:46;;;;;;;9.10;8.40;;;;;;;30.84;53.31;98842.96;226729;1273;22533;-73
2023/08/18 15:48:48;;;;;;;12.50;11.30;;;;;;;30.74;53.07;98844.00;226745;1266;24253;-71
2023/08/18 15:53:50;;;;;;;9.30;8.40;;;;;;;30.63;53.19;98848.50;226800;1271;22529;-72
2023/08/18 15:58:52;;;;;;;9.50;8.70;;;;;;;30.52;53.58;98851.85;226681;1273;23804;-73
2023/08/18 16:03:54;;;;;;;9.60;8.80;;;;;;;30.47;53.91;98856.49;226760;1273;24934;-72
2023/08/18 16:08:55;;;;;;;9.70;8.80;;;;;;;30.36;53.79;98859.61;226737;1273;25238;-71
2023/08/18 16:13:57;;;;;;;9.00;8.30;;;;;;;30.33;54.39;98864.27;226717;1273;22670;-72
2023/08/18 16:19:22;;;;;;;9.20;8.40;;;;;;;30.29;53.78;98878.35;226778;1273;22609;-72
2023/08/18 16:24:24;;;;;;;9.10;8.40;;;;;;;30.08;53.70;98891.02;226910;1273;22542;-72
2023/08/18 16:29:26;;;;;;;10.00;9.00;;;;;;;29.93;54.19;98892.49;226729;1273;25364;-73
2023/08/18 16:34:28;;;;;;;9.80;9.00;;;;;;;29.85;54.71;98896.05;226743;1267;25374;-73
2023/08/18 16:39:30;;;;;;;9.40;8.50;;;;;;;29.77;55.10;98896.15;226751;1272;22533;-72
2023/08/18 16:44:32;;;;;;;9.90;6.70;;;;;;;29.65;54.91;98904.39;226932;1273;22533;-72
2023/08/18 16:49:34;;;;;;;10.30;6.40;;;;;;;29.27;54.38;98903.55;226822;1273;25375;-72
2023/08/18 16:54:36;;;;;;;7.10;5.50;;;;;;;28.87;54.77;98906.21;226724;1269;22551;-73
2023/08/18 16:59:38;;;;;;;6.20;4.90;;;;;;;28.48;55.00;98896.73;226826;1273;22563;-72
2023/08/18 17:04:40;;;;;;;5.00;4.50;;;;;;;28.05;55.40;98886.70;226754;1273;22537;-73
2023/08/18 17:09:45;;;;;;;4.30;4.00;;;;;;;27.63;55.56;98891.33;226806;1273;22540;-72
2023/08/18 17:14:47;;;;;;;6.30;5.10;;;;;;;27.24;56.92;98888.02;226834;1269;25265;-72
2023/08/18 17:19:49;;;;;;;7.10;5.20;;;;;;;26.79;58.61;98892.85;226652;1273;22537;-72
2023/08/18 17:24:51;;;;;;;5.60;5.00;;;;;;;26.31;60.03;98901.12;226724;1273;24253;-73
2023/08/18 17:29:53;;;;;;;6.50;5.10;;;;;;;25.87;60.95;98912.91;226701;1273;22659;-71
2023/08/18 17:34:55;;;;;;;5.90;4.60;;;;;;;25.48;61.77;98912.82;226692;1270;22533;-71
2023/08/18 17:39:57;;;;;;;5.70;4.50;;;;;;;25.19;62.50;98914.26;226808;1273;25302;-72
2023/08/18 17:44:59;;;;;;;5.10;4.60;;;;;;;24.97;62.71;98915.67;226876;1273;22548;-72
2023/08/18 17:50:00;;;;;;;5.50;5.10;;;;;;;24.75;62.98;98910.23;226836;1273;22534;-71
2023/08/18 17:55:03;;;;;;;6.20;4.90;;;;;;;24.55;63.28;98909.77;226690;1273;25236;-72
2023/08/18 18:00:06;;;;;;;5.90;4.70;;;;;;;24.38;63.70;98916.10;226790;1273;22559;-72
2023/08/18 18:05:09;;;;;;;5.40;5.00;;;;;;;24.23;63.91;98915.48;226766;1273;24202;-72
2023/08/18 18:10:11;;;;;;;5.50;5.00;;;;;;;24.11;64.28;98917.15;226896;1273;23942;-71
2023/08/18 18:15:13;;;;;;;5.30;4.90;;;;;;;23.96;64.57;98938.73;226830;1273;22537;-71
2023/08/18 18:20:16;;;;;;;6.70;5.30;;;;;;;23.73;64.89;98946.49;226754;1273;22566;-71
2023/08/18 18:25:18;;;;;;;7.20;5.50;;;;;;;23.57;65.22;98941.63;226801;1273;22547;-71
2023/08/18 18:30:20;;;;;;;5.70;5.20;;;;;;;23.47;65.32;98941.31;226718;1273;22525;-72
2023/08/18 18:35:25;;;;;;;5.90;5.40;;;;;;;23.38;65.56;98957.15;226745;1268;22558;-71
2023/08/18 18:40:27;;;;;;;5.90;5.40;;;;;;;23.32;65.68;98962.27;226785;1273;22615;-71
2023/08/18 18:45:29;;;;;;;7.70;5.70;;;;;;;23.23;65.85;98971.63;226744;1272;22627;-71
2023/08/18 18:50:31;;;;;;;6.00;5.20;;;;;;;23.14;65.92;98972.63;226874;1273;22549;-72
2023/08/18 18:55:33;;;;;;;8.00;6.60;;;;;;;23.05;66.15;98973.34;226681;1267;22548;-72
2023/08/18 19:00:35;;;;;;;9.00;6.20;;;;;;;22.97;66.28;98978.23;226708;1269;22520;-72
2023/08/18 19:05:40;;;;;;;7.00;6.30;;;;;;;22.90;66.42;98980.95;226675;1273;24225;-73
2023/08/18 19:10:41;;;;;;;7.50;6.90;;;;;;;22.87;66.74;98977.52;226732;1267;22540;-72
2023/08/18 19:15:43;;;;;;;8.40;6.90;;;;;;;22.83;67.08;98975.96;226727;1270;22530;-72
2023/08/18 19:20:45;;;;;;;9.00;7.60;;;;;;;22.75;67.51;98981.02;226713;1263;25386;-71
2023/08/18 19:25:47;;;;;;;10.50;8.50;;;;;;;22.68;68.00;98980.17;226853;1271;22906;-72
2023/08/18 19:30:49;;;;;;;10.60;8.70;;;;;;;22.60;68.41;98977.27;226694;1273;22540;-71
2023/08/18 19:35:51;;;;;;;9.80;8.90;;;;;;;22.52;68.94;98985.52;226736;1266;22546;-71
2023/08/18 19:40:53;;;;;;;10.50;9.50;;;;;;;22.44;69.51;98979.32;226826;1272;22561;-73
2023/08/18 19:45:57;;;;;;;10.70;9.50;;;;;;;22.36;69.91;98980.80;226689;1267;22545;-72
2023/08/18 19:50:59;;;;;;;13.40;10.20;;;;;;;22.29;70.26;98986.50;226720;1273;22550;-74
2023/08/18 19:56:00;;;;;;;12.10;10.60;;;;;;;22.25;70.93;98985.99;226749;1270;24374;-72
2023/08/18 20:01:03;;;;;;;11.70;10.60;;;;;;;22.18;71.12;98995.79;226752;1273;22625;-72
2023/08/18 20:06:06;;;;;;;13.20;11.90;;;;;;;22.07;71.45;99000.23;226715;1273;22526;-71
2023/08/18 20:11:09;;;;;;;11.80;10.70;;;;;;;21.98;71.82;98992.01;226793;1273;22530;-71
2023/08/18 20:16:11;;;;;;;12.70;11.60;;;;;;;21.87;72.28;98996.27;226766;1273;22539;-73
2023/08/18 20:21:13;;;;;;;12.70;11.40;;;;;;;21.77;72.66;98989.19;226652;1273;22540;-72
2023/08/18 20:26:15;;;;;;;12.60;11.40;;;;;;;21.69;72.99;98990.06;226729;1270;22731;-72
2023/08/18 20:31:18;;;;;;;13.10;11.80;;;;;;;21.63;73.34;98993.15;226808;1272;22560;-72
2023/08/18 20:36:20;;;;;;;13.20;11.90;;;;;;;21.59;73.70;98989.55;226677;1267;22545;-73
2023/08/18 20:41:21;;;;;;;16.20;13.70;;;;;;;21.57;73.98;98993.83;226774;1273;22542;-73
2023/08/18 20:46:23;;;;;;;15.30;12.70;;;;;;;21.56;74.13;98996.13;226844;1267;22557;-71
2023/08/18 20:51:25;;;;;;;15.40;13.10;;;;;;;21.53;74.27;99000.66;226860;1270;23048;-71
2023/08/18 20:56:27;;;;;;;18.40;14.90;;;;;;;21.45;74.33;98999.62;226681;1272;22556;-72
2023/08/18 21:01:29;;;;;;;20.50;14.70;;;;;;;21.37;74.49;98992.98;226752;1266;25036;-72
2023/08/18 21:06:32;;;;;;;17.90;15.70;;;;;;;21.31;75.00;98984.16;226798;1272;22676;-72
2023/08/18 21:11:35;;;;;;;17.50;15.30;;;;;;;21.25;75.07;98986.17;226875;1273;22542;-72
2023/08/18 21:16:37;;;;;;;16.70;15.00;;;;;;;21.17;75.45;98985.27;226700;1273;22534;-72
2023/08/18 21:21:39;;;;;;;16.00;14.30;;;;;;;21.04;75.58;98980.65;226678;1272;22536;-72
2023/08/18 21:26:41;;;;;;;16.10;14.40;;;;;;;20.90;75.78;98976.45;226799;1272;22768;-72
2023/08/18 21:31:43;;;;;;;15.00;13.40;;;;;;;20.76;76.17;98972.94;226742;1273;25456;-72
2023/08/18 21:36:45;;;;;;;14.00;12.60;;;;;;;20.62;76.47;98971.63;226701;1273;22556;-73
2023/08/18 21:42:00;;;;;;;18.60;16.70;;;;;;;20.50;76.76;98974.61;226830;1273;22604;-71
2023/08/18 21:47:02;;;;;;;14.90;13.40;;;;;;;20.39;76.92;98979.84;226700;1269;22533;-70
2023/08/18 21:52:05;;;;;;;15.80;14.30;;;;;;;20.30;77.08;98973.02;226737;1269;22533;-73
2023/08/18 21:57:08;;;;;;;16.90;13.60;;;;;;;20.23;77.36;98970.77;226815;1269;22558;-71
2023/08/18 22:02:10;;;;;;;15.00;13.60;;;;;;;20.18;77.63;98972.79;226752;1273;24313;-71
2023/08/18 22:07:12;;;;;;;13.90;12.60;;;;;;;20.13;77.88;98966.87;226827;1269;25402;-72
2023/08/18 22:12:14;;;;;;;14.40;12.70;;;;;;;20.09;78.03;98968.04;226747;1273;22526;-72
2023/08/18 22:17:16;;;;;;;13.00;11.10;;;;;;;20.05;78.10;98962.61;226706;1273;22546;-72
2023/08/18 22:22:18;;;;;;;12.20;11.00;;;;;;;20.03;78.28;98955.41;226726;1272;22549;-71
2023/08/18 22:27:35;;;;;;;13.80;11.10;;;;;;;20.02;78.33;98951.30;226772;1270;25433;-72
2023/08/18 22:32:37;;;;;;;12.00;10.80;;;;;;;20.00;78.51;98957.17;226779;1273;24265;-72
2023/08/18 22:37:42;;;;;;;12.30;11.10;;;;;;;20.00;78.80;98954.13;226812;1272;22561;-72
2023/08/18 22:42:45;;;;;;;13.20;11.80;;;;;;;19.97;78.86;98952.78;226791;1272;22539;-72
2023/08/18 22:47:47;;;;;;;13.40;11.70;;;;;;;19.91;79.07;98947.04;226750;1273;24386;-72
2023/08/18 22:52:49;;;;;;;14.10;12.60;;;;;;;19.87;79.29;98951.18;226787;1272;22657;-71
2023/08/18 22:57:51;;;;;;;13.50;12.20;;;;;;;19.83;79.31;98964.69;226878;1273;22539;-71
2023/08/18 23:02:54;;;;;;;13.70;12.40;;;;;;;19.80;79.64;98966.23;226726;1273;24278;-72
2023/08/18 23:07:56;;;;;;;14.10;12.50;;;;;;;19.80;79.86;98954.90;226666;1272;22524;-72
2023/08/18 23:12:58;;;;;;;12.60;11.30;;;;;;;19.80;80.11;98956.63;226760;1273;22568;-71